2016 Cux-Wetter.de -Die Nutzung der Wetterdaten nur mit ausdrcklicher Genehmigung
Wetterdaten: Woche 22.01.18 - 28.01.18 (KW4)
Datum Zeit Temp. A. Feuchte A. Luftdruck Regen Wind Richtung Sonnenschein Solar Taupunkt Windchill Windben
22.01.2018 00:00 1,2 C 96 % 1010,9 hPa 0,0 l/m 7,8 km/h (2 Bft) S-SO 0,00 h 0 W/m 0,6 C -0,2 C 15,1 km/h (3 Bft)
22.01.2018 01:00 1,3 C 96 % 1009,8 hPa 0,0 l/m 8,1 km/h (2 Bft) SO 0,00 h 0 W/m 0,7 C -0,4 C 15,3 km/h (3 Bft)
22.01.2018 02:00 1,2 C 96 % 1009,0 hPa 0,0 l/m 8,1 km/h (2 Bft) O-SO 0,00 h 0 W/m 0,6 C -0,5 C 15,8 km/h (3 Bft)
22.01.2018 03:00 1,1 C 96 % 1007,9 hPa 0,0 l/m 7,7 km/h (2 Bft) SO 0,00 h 0 W/m 0,5 C -0,3 C 16,3 km/h (3 Bft)
22.01.2018 04:00 1,0 C 96 % 1007,3 hPa 0,0 l/m 7,8 km/h (2 Bft) SO 0,00 h 0 W/m 0,4 C -0,6 C 16,6 km/h (3 Bft)
22.01.2018 05:00 0,9 C 96 % 1006,8 hPa 0,0 l/m 6,8 km/h (2 Bft) SO 0,00 h 0 W/m 0,3 C 0,1 C 14,1 km/h (3 Bft)
22.01.2018 06:00 0,8 C 96 % 1006,0 hPa 0,0 l/m 6,0 km/h (2 Bft) O-SO 0,00 h 0 W/m 0,2 C 0,5 C 13,4 km/h (3 Bft)
22.01.2018 07:00 0,8 C 96 % 1005,0 hPa 0,0 l/m 7,0 km/h (2 Bft) O-SO 0,00 h 0 W/m 0,2 C -0,1 C 16,9 km/h (3 Bft)
22.01.2018 08:00 0,8 C 96 % 1004,9 hPa 0,0 l/m 6,1 km/h (2 Bft) O-SO 0,00 h 5 W/m 0,2 C 0,5 C 14,7 km/h (3 Bft)
22.01.2018 09:00 0,9 C 96 % 1004,4 hPa 0,0 l/m 7,0 km/h (2 Bft) SO 0,00 h 15 W/m 0,3 C 0,2 C 15,7 km/h (3 Bft)
22.01.2018 10:00 1,0 C 96 % 1004,2 hPa 0,2 l/m 6,7 km/h (2 Bft) SO 0,00 h 27 W/m 0,4 C 0,3 C 14,9 km/h (3 Bft)
22.01.2018 11:00 1,3 C 97 % 1004,3 hPa 0,2 l/m 6,8 km/h (2 Bft) SO 0,00 h 32 W/m 0,8 C 0,5 C 13,6 km/h (3 Bft)
22.01.2018 12:00 1,5 C 97 % 1004,1 hPa 0,0 l/m 6,5 km/h (2 Bft) SO 0,00 h 32 W/m 1,0 C 0,9 C 14,1 km/h (3 Bft)
22.01.2018 13:00 1,6 C 97 % 1004,1 hPa 0,0 l/m 4,7 km/h (1 Bft) SO 0,00 h 33 W/m 1,2 C 1,6 C 10,4 km/h (2 Bft)
22.01.2018 14:00 1,7 C 97 % 1004,3 hPa 0,0 l/m 3,3 km/h (1 Bft) SO 0,00 h 30 W/m 1,3 C 1,7 C 7,3 km/h (2 Bft)
22.01.2018 15:00 1,9 C 97 % 1004,8 hPa 0,0 l/m 2,3 km/h (1 Bft) SO 0,00 h 19 W/m 1,4 C 1,9 C 5,4 km/h (1 Bft)
22.01.2018 16:00 1,9 C 97 % 1005,7 hPa 0,0 l/m 0,8 km/h (0 Bft) SO 0,00 h 9 W/m 1,5 C 1,9 C 2,5 km/h (1 Bft)
22.01.2018 17:00 1,9 C 97 % 1006,8 hPa 0,0 l/m 0,5 km/h (0 Bft) SO 0,00 h 0 W/m 1,5 C 1,9 C 2,1 km/h (1 Bft)
22.01.2018 18:00 1,9 C 97 % 1007,8 hPa 0,0 l/m 1,8 km/h (1 Bft) SO 0,00 h 0 W/m 1,5 C 1,9 C 3,6 km/h (1 Bft)
22.01.2018 19:00 2,0 C 97 % 1008,2 hPa 0,0 l/m 1,2 km/h (1 Bft) SO 0,00 h 0 W/m 1,6 C 2,0 C 3,0 km/h (1 Bft)
22.01.2018 20:00 2,1 C 97 % 1008,9 hPa 0,0 l/m 1,0 km/h (0 Bft) SO 0,00 h 0 W/m 1,7 C 2,1 C 2,9 km/h (1 Bft)
22.01.2018 21:00 2,2 C 97 % 1009,6 hPa 0,0 l/m 1,8 km/h (1 Bft) S-SO 0,00 h 0 W/m 1,8 C 2,2 C 4,6 km/h (1 Bft)
22.01.2018 22:00 2,2 C 97 % 1010,3 hPa 0,0 l/m 1,2 km/h (1 Bft) S-SO 0,00 h 0 W/m 1,8 C 2,2 C 3,3 km/h (1 Bft)
22.01.2018 23:00 2,5 C 97 % 1011,3 hPa 0,0 l/m 1,4 km/h (1 Bft) S-SO 0,00 h 0 W/m 2,1 C 2,5 C 3,4 km/h (1 Bft)
23.01.2018 00:00 2,7 C 97 % 1012,2 hPa 0,0 l/m 1,2 km/h (1 Bft) S-SO 0,00 h 0 W/m 2,2 C 2,7 C 3,4 km/h (1 Bft)
23.01.2018 01:00 3,1 C 98 % 1012,9 hPa 0,0 l/m 1,8 km/h (1 Bft) S-SO 0,00 h 0 W/m 2,8 C 3,1 C 4,1 km/h (1 Bft)
23.01.2018 02:00 4,5 C 98 % 1013,4 hPa 0,0 l/m 6,8 km/h (2 Bft) W-SW 0,00 h 0 W/m 4,2 C 3,8 C 12,4 km/h (2 Bft)
23.01.2018 03:00 4,7 C 98 % 1013,9 hPa 0,0 l/m 6,2 km/h (2 Bft) W-SW 0,00 h 0 W/m 4,5 C 4,5 C 11,7 km/h (2 Bft)
23.01.2018 04:00 4,9 C 98 % 1014,6 hPa 0,2 l/m 8,7 km/h (2 Bft) SW 0,00 h 0 W/m 4,6 C 2,9 C 15,9 km/h (3 Bft)
23.01.2018 05:00 5,0 C 98 % 1015,3 hPa 0,0 l/m 9,6 km/h (2 Bft) SW 0,00 h 0 W/m 4,7 C 2,3 C 16,7 km/h (3 Bft)
23.01.2018 06:00 5,3 C 98 % 1015,8 hPa 0,0 l/m 11,6 km/h (2 Bft) SW 0,00 h 0 W/m 5,0 C 1,4 C 18,6 km/h (3 Bft)
23.01.2018 07:00 5,3 C 98 % 1016,3 hPa 0,0 l/m 9,5 km/h (2 Bft) SW 0,00 h 0 W/m 5,0 C 2,9 C 15,0 km/h (3 Bft)
23.01.2018 08:00 5,3 C 98 % 1016,8 hPa 0,4 l/m 9,8 km/h (2 Bft) SW 0,00 h 11 W/m 5,0 C 2,6 C 15,2 km/h (3 Bft)
23.01.2018 09:00 5,5 C 98 % 1017,2 hPa 0,0 l/m 11,1 km/h (2 Bft) SW 0,00 h 32 W/m 5,2 C 1,9 C 17,6 km/h (3 Bft)
23.01.2018 10:00 5,9 C 98 % 1017,3 hPa 0,0 l/m 10,9 km/h (2 Bft) S-SW 0,00 h 61 W/m 5,6 C 2,5 C 18,6 km/h (3 Bft)
23.01.2018 11:00 6,1 C 98 % 1017,4 hPa 0,0 l/m 11,7 km/h (2 Bft) SW 0,25 h 120 W/m 5,8 C 2,3 C 19,5 km/h (3 Bft)
23.01.2018 12:00 6,7 C 96 % 1017,0 hPa 0,0 l/m 12,3 km/h (2 Bft) SW 0,30 h 120 W/m 6,1 C 2,6 C 21,5 km/h (4 Bft)
23.01.2018 13:00 7,0 C 93 % 1016,6 hPa 0,0 l/m 11,2 km/h (2 Bft) S 0,00 h 66 W/m 6,0 C 3,5 C 19,9 km/h (4 Bft)
23.01.2018 14:00 7,1 C 93 % 1015,8 hPa 0,0 l/m 11,8 km/h (2 Bft) S 0,00 h 47 W/m 6,0 C 3,3 C 19,9 km/h (4 Bft)
23.01.2018 15:00 7,2 C 91 % 1015,0 hPa 0,0 l/m 11,5 km/h (2 Bft) S 0,00 h 35 W/m 5,9 C 3,6 C 20,2 km/h (4 Bft)
23.01.2018 16:00 7,1 C 91 % 1014,6 hPa 0,0 l/m 11,7 km/h (2 Bft) S 0,00 h 15 W/m 5,7 C 3,4 C 19,9 km/h (4 Bft)
23.01.2018 17:00 7,0 C 92 % 1014,0 hPa 0,6 l/m 14,6 km/h (3 Bft) S 0,00 h 0 W/m 5,7 C 1,8 C 24,7 km/h (4 Bft)
23.01.2018 18:00 6,8 C 94 % 1013,2 hPa 0,6 l/m 15,8 km/h (3 Bft) S 0,00 h 0 W/m 6,0 C 0,9 C 27,0 km/h (4 Bft)
23.01.2018 19:00 6,9 C 96 % 1012,2 hPa 0,2 l/m 17,5 km/h (3 Bft) S 0,00 h 0 W/m 6,3 C 0,3 C 30,4 km/h (5 Bft)
23.01.2018 20:00 7,1 C 96 % 1011,6 hPa 0,4 l/m 17,7 km/h (3 Bft) S 0,00 h 0 W/m 6,5 C 0,4 C 30,3 km/h (5 Bft)
23.01.2018 21:00 7,4 C 97 % 1011,2 hPa 0,0 l/m 18,3 km/h (3 Bft) S-SW 0,00 h 0 W/m 7,0 C 0,6 C 31,1 km/h (5 Bft)
23.01.2018 22:00 8,0 C 97 % 1010,7 hPa 0,2 l/m 21,1 km/h (4 Bft) S-SW 0,00 h 0 W/m 7,5 C 0,3 C 34,2 km/h (5 Bft)
23.01.2018 23:00 8,5 C 97 % 1010,3 hPa 0,2 l/m 23,4 km/h (4 Bft) S-SW 0,00 h 0 W/m 8,0 C 0,3 C 36,5 km/h (5 Bft)
24.01.2018 00:00 8,7 C 97 % 1010,5 hPa 0,8 l/m 23,0 km/h (4 Bft) S-SW 0,00 h 0 W/m 8,3 C 0,7 C 35,7 km/h (5 Bft)
24.01.2018 01:00 8,9 C 97 % 1010,6 hPa 0,4 l/m 20,8 km/h (4 Bft) SW 0,00 h 0 W/m 8,5 C 1,6 C 32,3 km/h (5 Bft)
24.01.2018 02:00 9,1 C 97 % 1010,9 hPa 0,2 l/m 19,8 km/h (4 Bft) SW 0,00 h 0 W/m 8,7 C 2,2 C 29,0 km/h (5 Bft)
24.01.2018 03:00 9,4 C 98 % 1010,9 hPa 0,0 l/m 19,2 km/h (3 Bft) S-SW 0,00 h 0 W/m 9,1 C 2,8 C 30,3 km/h (5 Bft)
24.01.2018 04:00 9,5 C 98 % 1011,3 hPa 0,2 l/m 16,9 km/h (3 Bft) SW 0,00 h 0 W/m 9,2 C 3,8 C 24,4 km/h (4 Bft)
24.01.2018 05:00 9,3 C 97 % 1011,3 hPa 0,0 l/m 17,4 km/h (3 Bft) SW 0,00 h 0 W/m 8,9 C 3,3 C 25,7 km/h (4 Bft)
24.01.2018 06:00 9,0 C 97 % 1010,9 hPa 0,0 l/m 16,4 km/h (3 Bft) SW 0,00 h 0 W/m 8,5 C 3,4 C 25,2 km/h (4 Bft)
24.01.2018 07:00 9,2 C 96 % 1010,4 hPa 0,0 l/m 15,6 km/h (3 Bft) SW 0,00 h 0 W/m 8,6 C 4,0 C 25,7 km/h (4 Bft)
24.01.2018 08:00 9,9 C 96 % 1009,8 hPa 0,0 l/m 15,6 km/h (3 Bft) S-SW 0,00 h 8 W/m 9,2 C 4,8 C 25,9 km/h (4 Bft)
24.01.2018 09:00 10,5 C 95 % 1009,1 hPa 0,0 l/m 17,1 km/h (3 Bft) SW 0,00 h 21 W/m 9,7 C 5,0 C 28,5 km/h (5 Bft)
24.01.2018 10:00 11,2 C 95 % 1008,5 hPa 0,0 l/m 18,9 km/h (3 Bft) SW 0,00 h 42 W/m 10,3 C 5,2 C 30,3 km/h (5 Bft)
24.01.2018 11:00 12,0 C 92 % 1007,9 hPa 0,0 l/m 22,6 km/h (4 Bft) SW 0,00 h 64 W/m 10,8 C 5,2 C 34,8 km/h (5 Bft)
24.01.2018 12:00 12,4 C 90 % 1006,8 hPa 0,0 l/m 22,8 km/h (4 Bft) S-SW 0,00 h 59 W/m 10,7 C 5,6 C 35,6 km/h (5 Bft)
24.01.2018 13:00 12,8 C 88 % 1005,7 hPa 0,0 l/m 22,9 km/h (4 Bft) S-SW 0,00 h 54 W/m 10,8 C 6,2 C 38,0 km/h (6 Bft)
24.01.2018 14:00 12,9 C 87 % 1004,7 hPa 0,0 l/m 24,3 km/h (4 Bft) S-SW 0,00 h 36 W/m 10,8 C 6,0 C 39,4 km/h (6 Bft)
24.01.2018 15:00 13,1 C 86 % 1003,9 hPa 0,0 l/m 23,7 km/h (4 Bft) S-SW 0,00 h 27 W/m 10,9 C 6,4 C 37,7 km/h (5 Bft)
24.01.2018 16:00 13,3 C 85 % 1003,2 hPa 0,0 l/m 24,6 km/h (4 Bft) SW 0,00 h 12 W/m 10,8 C 6,4 C 39,5 km/h (6 Bft)
24.01.2018 17:00 13,2 C 83 % 1002,6 hPa 0,0 l/m 25,5 km/h (4 Bft) S-SW 0,00 h 0 W/m 10,5 C 6,1 C 41,4 km/h (6 Bft)
24.01.2018 18:00 13,0 C 82 % 1002,3 hPa 0,0 l/m 25,9 km/h (4 Bft) SW 0,00 h 0 W/m 10,0 C 5,8 C 41,3 km/h (6 Bft)
24.01.2018 19:00 12,5 C 82 % 1002,3 hPa 0,0 l/m 27,3 km/h (5 Bft) SW 0,00 h 0 W/m 9,6 C 4,8 C 42,9 km/h (6 Bft)
24.01.2018 20:00 8,3 C 88 % 1003,5 hPa 1,8 l/m 13,1 km/h (3 Bft) W-SW 0,00 h 0 W/m 6,4 C 4,3 C 23,0 km/h (4 Bft)
24.01.2018 21:00 7,0 C 94 % 1003,7 hPa 1,0 l/m 13,0 km/h (3 Bft) SW 0,00 h 0 W/m 6,1 C 2,6 C 21,5 km/h (4 Bft)
24.01.2018 22:00 7,1 C 96 % 1003,9 hPa 0,8 l/m 16,4 km/h (3 Bft) SW 0,00 h 0 W/m 6,4 C 1,0 C 24,9 km/h (4 Bft)
24.01.2018 23:00 7,1 C 96 % 1004,0 hPa 0,6 l/m 16,2 km/h (3 Bft) SW 0,00 h 0 W/m 6,5 C 1,1 C 24,6 km/h (4 Bft)
25.01.2018 00:00 7,1 C 96 % 1004,5 hPa 0,4 l/m 15,5 km/h (3 Bft) S-SW 0,00 h 0 W/m 6,5 C 1,4 C 24,0 km/h (4 Bft)
25.01.2018 01:00 7,0 C 96 % 1005,0 hPa 0,4 l/m 16,6 km/h (3 Bft) SW 0,00 h 0 W/m 6,4 C 0,8 C 26,1 km/h (4 Bft)
25.01.2018 02:00 6,9 C 96 % 1005,5 hPa 0,0 l/m 15,8 km/h (3 Bft) SW 0,00 h 0 W/m 6,3 C 1,0 C 23,6 km/h (4 Bft)
25.01.2018 03:00 7,0 C 96 % 1005,9 hPa 0,0 l/m 17,8 km/h (3 Bft) SW 0,00 h 0 W/m 6,3 C 0,3 C 26,9 km/h (4 Bft)
25.01.2018 04:00 7,0 C 94 % 1006,2 hPa 0,0 l/m 17,5 km/h (3 Bft) SW 0,00 h 0 W/m 6,2 C 0,4 C 26,3 km/h (4 Bft)
25.01.2018 05:00 6,8 C 94 % 1006,6 hPa 0,0 l/m 18,3 km/h (3 Bft) SW 0,00 h 0 W/m 5,9 C -0,2 C 26,9 km/h (4 Bft)
25.01.2018 06:00 6,9 C 93 % 1006,9 hPa 0,0 l/m 19,1 km/h (3 Bft) SW 0,00 h 0 W/m 5,8 C -0,3 C 28,2 km/h (5 Bft)
25.01.2018 07:00 7,0 C 92 % 1007,3 hPa 0,0 l/m 20,7 km/h (4 Bft) SW 0,00 h 0 W/m 5,8 C -0,8 C 30,3 km/h (5 Bft)
25.01.2018 08:00 6,9 C 92 % 1007,8 hPa 0,0 l/m 17,4 km/h (3 Bft) SW 0,00 h 10 W/m 5,7 C 0,3 C 26,9 km/h (4 Bft)
25.01.2018 09:00 7,0 C 92 % 1008,1 hPa 0,0 l/m 15,9 km/h (3 Bft) SW 0,00 h 42 W/m 5,9 C 1,1 C 25,3 km/h (4 Bft)
25.01.2018 10:00 7,5 C 92 % 1008,3 hPa 0,0 l/m 15,9 km/h (3 Bft) SW 0,00 h 71 W/m 6,3 C 1,8 C 25,4 km/h (4 Bft)
25.01.2018 11:00 8,0 C 91 % 1008,9 hPa 0,0 l/m 15,7 km/h (3 Bft) S-SW 0,00 h 110 W/m 6,6 C 2,4 C 26,2 km/h (4 Bft)
25.01.2018 12:00 8,2 C 90 % 1008,9 hPa 0,0 l/m 16,5 km/h (3 Bft) SW 0,00 h 127 W/m 6,7 C 2,3 C 25,6 km/h (4 Bft)
25.01.2018 13:00 8,3 C 89 % 1008,7 hPa 0,0 l/m 16,1 km/h (3 Bft) SW 0,00 h 122 W/m 6,6 C 2,6 C 24,9 km/h (4 Bft)
25.01.2018 14:00 8,4 C 88 % 1008,7 hPa 0,0 l/m 14,5 km/h (3 Bft) SW 0,00 h 86 W/m 6,5 C 3,4 C 23,5 km/h (4 Bft)
25.01.2018 15:00 8,2 C 88 % 1008,9 hPa 0,0 l/m 10,0 km/h (2 Bft) S-SW 0,10 h 54 W/m 6,4 C 5,8 C 16,6 km/h (3 Bft)
25.01.2018 16:00 7,9 C 89 % 1009,0 hPa 0,0 l/m 7,1 km/h (2 Bft) S 0,00 h 16 W/m 6,2 C 7,1 C 12,8 km/h (3 Bft)
25.01.2018 17:00 7,5 C 90 % 1009,1 hPa 0,0 l/m 6,4 km/h (2 Bft) S-SO 0,00 h 0 W/m 6,0 C 7,0 C 10,7 km/h (2 Bft)
25.01.2018 18:00 7,2 C 91 % 1009,3 hPa 0,0 l/m 4,4 km/h (1 Bft) S-SO 0,00 h 0 W/m 5,8 C 7,2 C 8,4 km/h (2 Bft)
25.01.2018 19:00 7,2 C 92 % 1009,9 hPa 0,0 l/m 6,5 km/h (2 Bft) S 0,00 h 0 W/m 6,0 C 6,8 C 10,8 km/h (2 Bft)
25.01.2018 20:00 7,1 C 92 % 1010,0 hPa 0,0 l/m 6,6 km/h (2 Bft) S 0,00 h 0 W/m 5,9 C 6,6 C 10,1 km/h (2 Bft)
25.01.2018 21:00 6,8 C 93 % 1010,2 hPa 0,0 l/m 4,1 km/h (1 Bft) S-SO 0,00 h 0 W/m 5,7 C 6,8 C 7,6 km/h (2 Bft)
25.01.2018 22:00 6,5 C 93 % 1010,4 hPa 0,0 l/m 3,5 km/h (1 Bft) S-SO 0,00 h 0 W/m 5,4 C 6,5 C 6,3 km/h (2 Bft)
25.01.2018 23:00 6,2 C 94 % 1010,6 hPa 0,0 l/m 2,9 km/h (1 Bft) S-SO 0,00 h 0 W/m 5,2 C 6,2 C 6,4 km/h (2 Bft)
26.01.2018 00:00 6,5 C 95 % 1010,9 hPa 0,0 l/m 5,0 km/h (1 Bft) S-SW 0,00 h 0 W/m 5,7 C 6,5 C 8,6 km/h (2 Bft)
26.01.2018 01:00 6,6 C 95 % 1011,0 hPa 0,0 l/m 4,6 km/h (1 Bft) S-SW 0,00 h 0 W/m 5,9 C 6,6 C 7,7 km/h (2 Bft)
26.01.2018 02:00 6,7 C 95 % 1011,2 hPa 0,0 l/m 5,7 km/h (2 Bft) S-SW 0,00 h 0 W/m 6,0 C 6,7 C 8,8 km/h (2 Bft)
26.01.2018 03:00 6,5 C 95 % 1011,3 hPa 0,0 l/m 3,5 km/h (1 Bft) S-SW 0,00 h 0 W/m 5,8 C 6,5 C 5,7 km/h (2 Bft)
26.01.2018 04:00 6,2 C 95 % 1011,7 hPa 0,0 l/m 2,9 km/h (1 Bft) S-SW 0,00 h 0 W/m 5,4 C 6,2 C 4,7 km/h (1 Bft)
26.01.2018 05:00 5,6 C 95 % 1012,2 hPa 0,0 l/m 2,0 km/h (1 Bft) S-SW 0,00 h 0 W/m 4,9 C 5,6 C 3,7 km/h (1 Bft)
26.01.2018 06:00 4,9 C 95 % 1012,5 hPa 0,0 l/m 2,0 km/h (1 Bft) S-SW 0,00 h 0 W/m 4,2 C 4,9 C 3,4 km/h (1 Bft)
26.01.2018 07:00 4,5 C 95 % 1013,1 hPa 0,0 l/m 1,5 km/h (1 Bft) S-SW 0,00 h 0 W/m 3,7 C 4,5 C 2,9 km/h (1 Bft)
26.01.2018 08:00 4,0 C 95 % 1013,8 hPa 0,0 l/m 1,3 km/h (1 Bft) S-SW 0,00 h 12 W/m 3,3 C 4,0 C 2,8 km/h (1 Bft)
26.01.2018 09:00 4,3 C 96 % 1014,5 hPa 0,0 l/m 4,2 km/h (1 Bft) SW 0,00 h 36 W/m 3,7 C 4,3 C 6,5 km/h (2 Bft)
26.01.2018 10:00 5,2 C 97 % 1015,1 hPa 0,0 l/m 4,4 km/h (1 Bft) S 0,00 h 56 W/m 4,7 C 5,2 C 8,0 km/h (2 Bft)
26.01.2018 11:00 5,0 C 97 % 1015,8 hPa 0,0 l/m 4,8 km/h (1 Bft) S-SW 0,00 h 95 W/m 4,6 C 5,0 C 9,3 km/h (2 Bft)
26.01.2018 12:00 5,1 C 98 % 1016,3 hPa 0,0 l/m 5,2 km/h (1 Bft) S-SW 0,00 h 113 W/m 4,8 C 5,1 C 10,5 km/h (2 Bft)
26.01.2018 13:00 5,2 C 98 % 1016,6 hPa 0,0 l/m 5,2 km/h (1 Bft) W 0,00 h 77 W/m 4,9 C 5,2 C 10,5 km/h (2 Bft)
26.01.2018 14:00 4,8 C 98 % 1017,2 hPa 0,0 l/m 4,0 km/h (1 Bft) W 0,00 h 44 W/m 4,5 C 4,8 C 8,4 km/h (2 Bft)
26.01.2018 15:00 4,4 C 98 % 1017,9 hPa 0,0 l/m 4,8 km/h (1 Bft) SW 0,00 h 30 W/m 4,1 C 4,4 C 9,7 km/h (2 Bft)
26.01.2018 16:00 4,2 C 98 % 1018,8 hPa 0,0 l/m 5,2 km/h (1 Bft) W-SW 0,00 h 10 W/m 3,9 C 4,2 C 11,7 km/h (2 Bft)
26.01.2018 17:00 4,2 C 98 % 1019,4 hPa 0,0 l/m 6,0 km/h (2 Bft) W-SW 0,00 h 0 W/m 3,9 C 4,2 C 12,1 km/h (2 Bft)
26.01.2018 18:00 4,1 C 98 % 1020,2 hPa 0,0 l/m 5,2 km/h (1 Bft) W-SW 0,00 h 0 W/m 3,8 C 4,1 C 12,1 km/h (2 Bft)
26.01.2018 19:00 4,0 C 98 % 1021,0 hPa 0,0 l/m 5,2 km/h (1 Bft) S-SW 0,00 h 0 W/m 3,7 C 4,0 C 12,1 km/h (2 Bft)
26.01.2018 20:00 4,0 C 98 % 1021,7 hPa 0,0 l/m 4,8 km/h (1 Bft) S-SW 0,00 h 0 W/m 3,7 C 4,0 C 9,7 km/h (2 Bft)
26.01.2018 21:00 4,2 C 98 % 1022,3 hPa 0,0 l/m 4,8 km/h (1 Bft) SW 0,00 h 0 W/m 3,9 C 4,2 C 12,5 km/h (2 Bft)
26.01.2018 22:00 4,3 C 98 % 1023,0 hPa 0,0 l/m 6,8 km/h (2 Bft) SW 0,00 h 0 W/m 4,0 C 3,9 C 12,5 km/h (2 Bft)
26.01.2018 23:00 4,5 C 98 % 1023,4 hPa 0,2 l/m 5,2 km/h (1 Bft) S-SW 0,00 h 0 W/m 4,2 C 4,5 C 10,9 km/h (2 Bft)
27.01.2018 00:00 4,6 C 98 % 1024,1 hPa 0,0 l/m 7,6 km/h (2 Bft) S-SW 0,00 h 0 W/m 4,3 C 3,6 C 13,7 km/h (3 Bft)
27.01.2018 01:00 4,7 C 98 % 1024,1 hPa 0,0 l/m 8,9 km/h (2 Bft) SW 0,00 h 0 W/m 4,4 C 2,6 C 16,5 km/h (3 Bft)
27.01.2018 02:00 4,8 C 98 % 1024,2 hPa 0,0 l/m 8,4 km/h (2 Bft) SW 0,00 h 0 W/m 4,5 C 3,0 C 14,5 km/h (3 Bft)
27.01.2018 03:00 4,8 C 98 % 1024,5 hPa 0,0 l/m 6,4 km/h (2 Bft) SW 0,00 h 0 W/m 4,5 C 4,8 C 12,5 km/h (2 Bft)
27.01.2018 04:00 4,8 C 98 % 1024,9 hPa 0,0 l/m 6,4 km/h (2 Bft) SW 0,00 h 0 W/m 4,5 C 4,8 C 12,1 km/h (2 Bft)
27.01.2018 05:00 4,8 C 98 % 1025,6 hPa 0,0 l/m 4,4 km/h (1 Bft) SW 0,00 h 0 W/m 4,5 C 4,8 C 10,9 km/h (2 Bft)
27.01.2018 06:00 4,8 C 98 % 1025,8 hPa 0,0 l/m 6,0 km/h (2 Bft) S-SW 0,00 h 0 W/m 4,5 C 4,8 C 10,9 km/h (2 Bft)
27.01.2018 07:00 4,8 C 98 % 1026,2 hPa 0,0 l/m 7,8 km/h (2 Bft) SW 0,00 h 0 W/m 4,4 C 3,3 C 13,5 km/h (3 Bft)
27.01.2018 08:00 4,8 C 97 % 1026,8 hPa 0,0 l/m 8,4 km/h (2 Bft) S-SW 0,00 h 9 W/m 4,3 C 3,0 C 14,2 km/h (3 Bft)
27.01.2018 09:00 5,0 C 96 % 1026,8 hPa 0,0 l/m 6,1 km/h (2 Bft) S 0,00 h 18 W/m 4,4 C 4,5 C 10,7 km/h (2 Bft)
27.01.2018 10:00 5,3 C 95 % 1027,1 hPa 0,0 l/m 9,7 km/h (2 Bft) SW 0,00 h 37 W/m 4,6 C 2,7 C 16,9 km/h (3 Bft)
27.01.2018 11:00 5,3 C 95 % 1027,3 hPa 0,0 l/m 11,9 km/h (2 Bft) S-SW 0,00 h 57 W/m 4,5 C 1,2 C 19,3 km/h (3 Bft)
27.01.2018 12:00 5,6 C 90 % 1026,9 hPa 0,0 l/m 13,0 km/h (3 Bft) SW 0,00 h 60 W/m 4,0 C 0,9 C 20,9 km/h (4 Bft)
27.01.2018 13:00 5,9 C 89 % 1026,3 hPa 0,0 l/m 11,1 km/h (2 Bft) SW 0,00 h 93 W/m 4,2 C 2,3 C 18,9 km/h (3 Bft)
27.01.2018 14:00 6,1 C 87 % 1025,8 hPa 0,0 l/m 10,9 km/h (2 Bft) SW 0,00 h 60 W/m 4,2 C 2,8 C 19,1 km/h (3 Bft)
27.01.2018 15:00 6,2 C 84 % 1025,0 hPa 0,0 l/m 14,9 km/h (3 Bft) S-SW 0,00 h 32 W/m 3,7 C 0,6 C 24,4 km/h (4 Bft)
27.01.2018 16:00 5,7 C 82 % 1024,4 hPa 0,0 l/m 15,6 km/h (3 Bft) S-SW 0,00 h 10 W/m 2,8 C -0,3 C 26,7 km/h (4 Bft)
27.01.2018 17:00 5,2 C 84 % 1023,1 hPa 0,0 l/m 14,7 km/h (3 Bft) S 0,00 h 0 W/m 2,7 C -0,5 C 26,9 km/h (4 Bft)
27.01.2018 18:00 5,0 C 86 % 1022,1 hPa 0,0 l/m 16,8 km/h (3 Bft) S-SW 0,00 h 0 W/m 2,9 C -1,7 C 29,3 km/h (5 Bft)
27.01.2018 19:00 5,2 C 86 % 1020,7 hPa 0,0 l/m 18,3 km/h (3 Bft) S 0,00 h 0 W/m 3,2 C -2,1 C 32,9 km/h (5 Bft)
27.01.2018 20:00 5,6 C 88 % 1020,0 hPa 0,0 l/m 18,3 km/h (3 Bft) S-SW 0,00 h 0 W/m 3,7 C -1,7 C 31,1 km/h (5 Bft)
27.01.2018 21:00 5,3 C 92 % 1019,1 hPa 1,6 l/m 22,1 km/h (4 Bft) S-SW 0,00 h 0 W/m 4,1 C -3,5 C 34,7 km/h (5 Bft)
27.01.2018 22:00 5,1 C 95 % 1018,0 hPa 0,6 l/m 26,1 km/h (4 Bft) S-SW 0,00 h 0 W/m 4,3 C -5,2 C 39,2 km/h (6 Bft)
27.01.2018 23:00 5,2 C 96 % 1017,2 hPa 0,0 l/m 28,6 km/h (5 Bft) SW 0,00 h 0 W/m 4,7 C -5,7 C 43,2 km/h (6 Bft)
28.01.2018 00:00 5,6 C 96 % 1016,7 hPa 0,6 l/m 29,0 km/h (5 Bft) SW 0,00 h 0 W/m 5,0 C -5,3 C 43,8 km/h (6 Bft)
28.01.2018 01:00 5,9 C 96 % 1016,6 hPa 2,2 l/m 29,3 km/h (5 Bft) SW 0,00 h 0 W/m 5,3 C -4,9 C 43,6 km/h (6 Bft)
28.01.2018 02:00 6,4 C 97 % 1016,8 hPa 0,6 l/m 25,4 km/h (4 Bft) SW 0,00 h 0 W/m 5,9 C -3,2 C 39,0 km/h (6 Bft)
28.01.2018 03:00 6,9 C 97 % 1017,4 hPa 0,0 l/m 19,0 km/h (3 Bft) SW 0,00 h 0 W/m 6,4 C -0,3 C 31,8 km/h (5 Bft)
28.01.2018 04:00 7,0 C 97 % 1017,8 hPa 0,0 l/m 16,5 km/h (3 Bft) W-SW 0,00 h 0 W/m 6,6 C 0,9 C 29,3 km/h (5 Bft)
28.01.2018 05:00 6,6 C 97 % 1018,6 hPa 0,0 l/m 17,5 km/h (3 Bft) W-SW 0,00 h 0 W/m 6,1 C -0,1 C 29,1 km/h (5 Bft)
28.01.2018 06:00 6,1 C 96 % 1019,3 hPa 0,0 l/m 14,5 km/h (3 Bft) SW 0,00 h 0 W/m 5,5 C 0,8 C 25,2 km/h (4 Bft)
28.01.2018 07:00 6,2 C 95 % 1020,0 hPa 0,0 l/m 14,4 km/h (3 Bft) W-SW 0,00 h 0 W/m 5,4 C 0,9 C 25,1 km/h (4 Bft)
28.01.2018 08:00 6,4 C 94 % 1020,3 hPa 0,0 l/m 13,2 km/h (3 Bft) SW 0,00 h 11 W/m 5,5 C 1,7 C 22,2 km/h (4 Bft)
28.01.2018 09:00 6,4 C 93 % 1020,7 hPa 0,0 l/m 14,9 km/h (3 Bft) SW 0,00 h 38 W/m 5,3 C 0,8 C 26,7 km/h (4 Bft)
28.01.2018 10:00 6,9 C 91 % 1021,0 hPa 0,0 l/m 16,1 km/h (3 Bft) SW 0,00 h 89 W/m 5,6 C 0,9 C 28,4 km/h (5 Bft)
28.01.2018 11:00 7,2 C 90 % 1021,6 hPa 0,0 l/m 17,2 km/h (3 Bft) W-SW 0,00 h 113 W/m 5,7 C 0,8 C 29,8 km/h (5 Bft)
28.01.2018 12:00 7,2 C 92 % 1021,6 hPa 0,0 l/m 16,8 km/h (3 Bft) SW 0,00 h 113 W/m 5,9 C 0,9 C 29,1 km/h (5 Bft)
28.01.2018 13:00 7,4 C 91 % 1021,5 hPa 0,0 l/m 17,7 km/h (3 Bft) SW 0,00 h 107 W/m 6,1 C 0,8 C 31,5 km/h (5 Bft)
28.01.2018 14:00 7,8 C 90 % 1021,0 hPa 0,0 l/m 20,7 km/h (4 Bft) W-SW 0,00 h 49 W/m 6,3 C 0,2 C 34,7 km/h (5 Bft)
28.01.2018 15:00 7,3 C 93 % 1020,9 hPa 0,6 l/m 15,6 km/h (3 Bft) SW 0,00 h 21 W/m 6,3 C 1,6 C 26,7 km/h (4 Bft)
28.01.2018 16:00 7,3 C 96 % 1020,3 hPa 1,2 l/m 19,7 km/h (3 Bft) SW 0,00 h 9 W/m 6,7 C -0,0 C 29,2 km/h (5 Bft)
28.01.2018 17:00 7,8 C 97 % 1020,0 hPa 2,0 l/m 21,3 km/h (4 Bft) W-SW 0,00 h 0 W/m 7,3 C -0,0 C 33,3 km/h (5 Bft)
28.01.2018 18:00 7,9 C 97 % 1019,7 hPa 0,2 l/m 20,0 km/h (4 Bft) W-SW 0,00 h 0 W/m 7,4 C 0,6 C 34,8 km/h (5 Bft)
28.01.2018 19:00 7,8 C 97 % 1019,7 hPa 0,2 l/m 20,4 km/h (4 Bft) W-SW 0,00 h 0 W/m 7,4 C 0,3 C 34,9 km/h (5 Bft)
28.01.2018 20:00 7,9 C 98 % 1019,7 hPa 0,4 l/m 20,5 km/h (4 Bft) W-SW 0,00 h 0 W/m 7,6 C 0,4 C 35,6 km/h (5 Bft)
28.01.2018 21:00 8,1 C 98 % 1019,9 hPa 0,0 l/m 21,8 km/h (4 Bft) W-SW 0,00 h 0 W/m 7,8 C 0,3 C 36,8 km/h (5 Bft)
28.01.2018 22:00 8,0 C 98 % 1019,8 hPa 0,0 l/m 18,2 km/h (3 Bft) W-SW 0,00 h 0 W/m 7,7 C 1,4 C 31,7 km/h (5 Bft)
28.01.2018 23:00 8,3 C 98 % 1019,7 hPa 0,2 l/m 18,7 km/h (3 Bft) W-SW 0,00 h 0 W/m 8,0 C 1,6 C 31,8 km/h (5 Bft)
Min-Datum _ 22.01.18 24.01.18 24.01.18 - 22.01.18 - - - 22.01.18 27.01.18 22.01.18
_ Min-Zeit 05:57 20:00 19:48 - 16:15 - - - 05:57 22:54 16:15
Minimum _ 0,8 C 79 % 1001,9 hPa - 0,0 km/h (0 Bft) - - - 0,2 C -6,8 C 0,0 km/h (0 Bft)
Max-Datum _ 24.01.18 22.01.18 27.01.18 28.01.18 28.01.18 - 23.01.18 23.01.18 24.01.18 25.01.18 28.01.18
_ Max-Zeit 16:00 23:21 11:30 01:36 01:09 - 11:39 12:18 16:00 15:57 00:57
Maximum _ 13,3 C 98 % 1027,4 hPa 2,2 l/m 33,6 km/h
SW (5 Bft)
- 0,05 h 220 W/m 11,0 C 8,0 C 57,9 km/h
SW (7 Bft)
Durchschnitt _ 6,1 C 95 % 1013,8 hPa #20,4 l/m 12,2 km/h (2 Bft) SW #39 min. 49 W/m 5,2 C 2,4 C 20,5 km/h (4 Bft)
2018 Cux-Wetter.de -Die Nutzung der Wetterdaten nur mit ausdrcklicher Genehmigung